Time;durP1;ratioP1;P1;durP2;ratioP2;P2;SDS_P1;SDS_P2;PMS_P1;PMS_P2;Temp;Humidity;BMP_temperature;BMP_pressure;BME280_temperature;BME280_humidity;BME280_pressure;Samples;Min_cycle;Max_cycle;Signal;HPM_P1;HPM_P2
2022/06/11 00:00:32;;;;;;;4.58;4.25;;;;;;;15.59;71.21;101002.23;3495919;80;20980;-82
2022/06/11 00:05:23;;;;;;;5.22;4.72;;;;;;;15.55;70.99;100999.63;3525150;80;20975;-82
2022/06/11 00:10:14;;;;;;;5.42;5.03;;;;;;;15.57;71.22;101002.67;3485618;80;21486;-82
2022/06/11 00:15:06;;;;;;;5.72;5.30;;;;;;;15.59;71.42;101002.68;3504738;80;20983;-82
2022/06/11 00:19:58;;;;;;;5.62;5.22;;;;;;;15.61;71.41;101007.48;3483531;80;21505;-82
2022/06/11 00:24:51;;;;;;;6.15;5.22;;;;;;;15.55;71.43;101008.35;3474339;80;20936;-82
2022/06/11 00:29:43;;;;;;;5.37;4.92;;;;;;;15.57;71.31;101011.84;3522570;80;20959;-82
2022/06/11 00:34:36;;;;;;;6.53;5.92;;;;;;;15.52;70.88;101010.09;3475594;80;20940;-82
2022/06/11 00:39:32;;;;;;;6.15;5.58;;;;;;;15.46;71.58;101018.83;3500604;80;20967;-82
2022/06/11 00:44:24;;;;;;;7.65;6.95;;;;;;;15.43;71.75;101025.36;3531195;80;21104;-82
2022/06/11 00:49:24;;;;;;;6.78;6.17;;;;;;;15.47;72.08;101025.83;3485648;80;20987;-82
2022/06/11 00:54:20;;;;;;;7.50;6.90;;;;;;;15.50;72.09;101023.19;3539825;80;22073;-81
2022/06/11 00:59:20;;;;;;;7.80;7.17;;;;;;;15.48;71.67;101023.63;3549011;80;20971;-82
2022/06/11 01:04:48;;;;;;;6.45;5.87;;;;;;;15.41;72.12;101023.18;3548660;80;22411;-82
2022/06/11 01:10:10;;;;;;;7.97;5.80;;;;;;;15.40;71.59;101024.07;3367505;82;21068;-81
2022/06/11 01:15:22;;;;;;;6.55;6.05;;;;;;;15.38;71.76;101012.69;3293439;83;21074;-81
2022/06/11 01:20:44;;;;;;;7.08;5.53;;;;;;;15.38;72.01;101010.06;3364662;82;20910;-82
2022/06/11 01:25:50;;;;;;;5.67;5.28;;;;;;;15.31;72.04;100997.83;3351158;82;22035;-82
2022/06/11 01:30:52;;;;;;;6.67;6.08;;;;;;;15.21;71.88;100992.58;3364323;82;20975;-82
2022/06/11 01:36:03;;;;;;;6.58;5.95;;;;;;;15.22;72.48;100988.20;3327791;82;20934;-82
2022/06/11 01:41:17;;;;;;;6.47;5.97;;;;;;;15.27;72.58;100984.30;3393087;81;21003;-82
2022/06/11 01:46:17;;;;;;;6.20;5.70;;;;;;;15.24;72.73;100989.97;3523329;80;21383;-83
2022/06/11 01:51:26;;;;;;;4.92;4.53;;;;;;;15.21;73.02;100984.72;3529618;80;21030;-82
2022/06/11 01:56:28;;;;;;;5.87;5.37;;;;;;;15.19;72.58;100979.92;3483672;80;21011;-82
2022/06/11 02:01:43;;;;;;;5.90;5.40;;;;;;;15.13;72.83;100990.39;3484443;80;21062;-82
2022/06/11 02:06:58;;;;;;;6.47;5.60;;;;;;;15.09;72.95;100989.92;3518325;80;21569;-83
2022/06/11 02:12:04;;;;;;;6.15;4.78;;;;;;;15.07;72.96;100994.28;3509257;80;20923;-82
2022/06/11 02:17:01;;;;;;;4.70;4.30;;;;;;;15.04;72.79;100997.78;3492200;80;20881;-82
2022/06/11 02:22:01;;;;;;;5.65;5.17;;;;;;;15.05;72.87;101005.20;3550464;80;20959;-82
2022/06/11 02:26:58;;;;;;;4.83;4.33;;;;;;;14.93;72.62;100999.91;3548654;80;22017;-82
2022/06/11 02:31:54;;;;;;;4.37;4.00;;;;;;;14.85;72.77;101004.69;3489187;80;21628;-82
2022/06/11 02:36:57;;;;;;;4.72;4.33;;;;;;;14.67;72.52;101007.23;3549361;80;20908;-82
2022/06/11 02:41:49;;;;;;;4.40;4.08;;;;;;;14.47;72.86;101009.72;3549219;80;20999;-81
2022/06/11 02:46:46;;;;;;;4.65;4.25;;;;;;;14.33;72.95;101020.09;3471973;80;20970;-81
2022/06/11 02:51:35;;;;;;;4.67;4.20;;;;;;;14.30;73.05;101017.45;3468346;80;21875;-81
2022/06/11 02:56:28;;;;;;;5.33;4.83;;;;;;;14.35;73.33;101015.74;3523304;80;20940;-81
2022/06/11 03:01:21;;;;;;;4.60;4.30;;;;;;;14.43;73.22;101015.78;3490879;80;20964;-81
2022/06/11 03:06:12;;;;;;;4.72;4.33;;;;;;;14.44;72.96;101021.02;3445824;80;20956;-81
2022/06/11 03:11:04;;;;;;;5.10;4.70;;;;;;;14.62;72.99;101007.64;3546376;80;20936;-81
2022/06/11 03:15:55;;;;;;;5.25;4.85;;;;;;;15.69;72.96;101007.51;3481371;80;21033;-81
2022/06/11 03:20:47;;;;;;;5.72;5.20;;;;;;;16.78;71.60;101013.91;3492774;80;20924;-81
2022/06/11 03:25:39;;;;;;;6.42;5.83;;;;;;;17.77;69.83;101010.73;3450081;80;20936;-82
2022/06/11 03:30:30;;;;;;;7.08;6.58;;;;;;;19.09;67.99;101004.55;3428027;80;20924;-82
2022/06/11 03:35:21;;;;;;;6.10;5.65;;;;;;;20.12;66.14;101010.42;3549173;80;20967;-82
2022/06/11 03:40:13;;;;;;;7.97;6.10;;;;;;;20.02;64.43;101007.98;3474746;80;21054;-82
2022/06/11 03:45:07;;;;;;;5.45;4.62;;;;;;;19.09;64.29;100998.83;3453962;80;21337;-83
2022/06/11 03:49:58;;;;;;;5.37;4.87;;;;;;;18.89;64.51;101013.59;3475564;81;21488;-82
2022/06/11 03:54:49;;;;;;;4.75;4.28;;;;;;;18.15;64.94;101019.61;3459842;81;20951;-82
2022/06/11 03:59:41;;;;;;;5.70;4.28;;;;;;;17.39;65.86;101010.13;3438112;81;20967;-82
2022/06/11 04:04:32;;;;;;;4.58;4.17;;;;;;;16.84;66.73;101018.30;3482318;81;21473;-82
2022/06/11 04:09:29;;;;;;;5.20;3.85;;;;;;;16.45;67.60;101024.07;3455460;81;22227;-82
2022/06/11 04:14:20;;;;;;;4.25;3.85;;;;;;;16.20;68.32;101020.17;3448990;81;21572;-82
2022/06/11 04:19:20;;;;;;;4.15;3.62;;;;;;;16.10;68.92;101018.02;3482895;81;20987;-82
2022/06/11 04:24:12;;;;;;;3.40;3.08;;;;;;;16.01;69.22;101017.58;3452857;81;21474;-82
2022/06/11 04:29:07;;;;;;;2.77;2.58;;;;;;;15.96;69.48;101025.02;3450971;81;21467;-82
2022/06/11 04:34:00;;;;;;;3.20;2.90;;;;;;;15.95;69.77;101022.84;3459645;81;20977;-82
2022/06/11 04:38:51;;;;;;;3.15;2.95;;;;;;;15.98;69.98;101029.82;3424244;81;20947;-82
2022/06/11 04:43:43;;;;;;;3.30;2.50;;;;;;;15.98;70.17;101033.75;3453638;81;21014;-82
2022/06/11 04:48:35;;;;;;;1.90;1.80;;;;;;;16.00;70.05;101031.55;3489270;80;20956;-82
2022/06/11 04:53:26;;;;;;;3.75;2.42;;;;;;;16.01;69.61;101029.38;3496745;80;21557;-82
2022/06/11 04:58:18;;;;;;;2.55;2.08;;;;;;;16.10;69.64;101031.13;3477334;80;20869;-82
2022/06/11 05:03:10;;;;;;;1.87;1.77;;;;;;;16.19;69.17;101034.18;3523408;80;20976;-82
2022/06/11 05:08:01;;;;;;;2.00;1.90;;;;;;;16.29;69.53;101034.58;3495979;80;20987;-82
2022/06/11 05:12:53;;;;;;;1.80;1.70;;;;;;;16.35;68.81;101033.73;3516274;80;21483;-82
2022/06/11 05:17:45;;;;;;;1.72;1.62;;;;;;;16.39;68.54;101038.95;3521160;80;22154;-82
2022/06/11 05:22:38;;;;;;;1.95;1.77;;;;;;;16.61;67.92;101041.52;3450950;80;20964;-82
2022/06/11 05:27:29;;;;;;;1.95;1.85;;;;;;;16.81;67.70;101041.90;3481001;80;20936;-82
2022/06/11 05:32:27;;;;;;;1.75;1.65;;;;;;;16.91;67.62;101042.34;3525681;80;20983;-82
2022/06/11 05:37:18;;;;;;;1.95;1.82;;;;;;;17.10;67.17;101038.75;3542958;80;20920;-82
2022/06/11 05:42:10;;;;;;;1.80;1.70;;;;;;;18.04;65.14;101039.91;3530811;80;21521;-82
2022/06/11 05:47:02;;;;;;;1.60;1.50;;;;;;;18.55;64.33;101044.23;3517643;80;21021;-82
2022/06/11 05:51:59;;;;;;;2.10;2.00;;;;;;;18.97;63.89;101052.55;3433787;81;21461;-82
2022/06/11 05:56:51;;;;;;;1.47;1.37;;;;;;;19.26;62.55;101047.34;3472204;81;20983;-82
2022/06/11 06:01:43;;;;;;;1.70;1.60;;;;;;;18.87;63.16;101056.20;3423107;81;21458;-82
2022/06/11 06:06:35;;;;;;;1.60;1.50;;;;;;;18.59;63.30;101064.83;3481160;81;21203;-82
2022/06/11 06:11:26;;;;;;;1.82;1.60;;;;;;;18.48;63.82;101064.94;3501293;80;20947;-82
2022/06/11 06:16:21;;;;;;;1.82;1.45;;;;;;;18.47;63.46;101065.81;3433580;81;22211;-82
2022/06/11 06:21:14;;;;;;;2.12;1.40;;;;;;;18.31;63.46;101072.12;3454586;81;20935;-82
2022/06/11 06:26:05;;;;;;;3.83;1.67;;;;;;;18.35;63.39;101082.62;3396908;81;21448;-82
2022/06/11 06:30:58;;;;;;;1.45;1.35;;;;;;;18.75;62.96;101082.20;3459443;81;21035;-82
2022/06/11 06:35:50;;;;;;;1.80;1.65;;;;;;;18.80;62.77;101087.43;3422474;81;20968;-82
2022/06/11 06:40:42;;;;;;;1.75;1.65;;;;;;;19.15;62.24;101081.75;3456524;81;20947;-82
2022/06/11 06:45:33;;;;;;;3.40;2.00;;;;;;;19.78;60.84;101083.55;3432590;81;21085;-82
2022/06/11 06:50:24;;;;;;;1.65;1.55;;;;;;;19.77;60.63;101085.76;3540165;79;21508;-82
2022/06/11 06:55:16;;;;;;;1.75;1.50;;;;;;;19.98;60.31;101090.29;3506834;79;21993;-82
2022/06/11 07:00:09;;;;;;;1.72;1.47;;;;;;;20.78;59.00;101098.13;3563970;79;20947;-82
2022/06/11 07:05:00;;;;;;;2.58;1.67;;;;;;;20.75;58.47;101096.89;3509444;79;20966;-82
2022/06/11 07:09:57;;;;;;;1.57;1.35;;;;;;;20.54;58.16;101103.41;3514364;79;21417;-82
2022/06/11 07:14:48;;;;;;;;;;;;;;;20.38;58.15;101106.77;3555895;79;20954;-82
2022/06/11 07:19:47;;;;;;;1.77;1.67;;;;;;;20.41;57.85;101107.15;3565776;79;20190;-82
2022/06/11 07:24:41;;;;;;;2.20;1.75;;;;;;;22.25;54.78;101102.41;3559597;79;21779;-83
2022/06/11 07:29:37;;;;;;;1.98;1.57;;;;;;;25.33;50.91;101099.39;3538670;79;20922;-84
2022/06/11 07:34:29;;;;;;;4.78;2.05;;;;;;;29.49;44.64;101091.03;3555272;79;20959;-85
2022/06/11 07:39:20;;;;;;;2.10;1.60;;;;;;;32.12;41.63;101093.64;3533205;79;20939;-83
2022/06/11 07:44:11;;;;;;;1.90;1.80;;;;;;;34.37;39.61;101090.91;3528444;79;20994;-83
2022/06/11 07:49:03;;;;;;;1.75;1.65;;;;;;;36.35;35.83;101083.36;3498300;79;21462;-84
2022/06/11 07:53:54;;;;;;;2.05;1.90;;;;;;;37.38;34.91;101086.95;3472146;80;20979;-84
2022/06/11 07:58:46;;;;;;;2.12;1.35;;;;;;;36.04;35.12;101087.80;3519209;80;21467;-83
2022/06/11 08:03:38;;;;;;;1.70;1.45;;;;;;;32.59;35.74;101096.73;3490925;80;21430;-83
2022/06/11 08:08:31;;;;;;;1.65;1.50;;;;;;;30.20;37.23;101093.19;3462179;80;21410;-83
2022/06/11 08:13:22;;;;;;;2.95;1.70;;;;;;;28.77;38.68;101095.35;3426986;80;20912;-83
2022/06/11 08:18:14;;;;;;;1.60;1.50;;;;;;;27.77;39.93;101083.89;3455813;80;22214;-83
2022/06/11 08:23:06;;;;;;;3.58;1.57;;;;;;;29.30;38.07;101079.14;3491656;80;20951;-84
2022/06/11 08:27:58;;;;;;;2.92;1.65;;;;;;;32.97;34.53;101096.72;3436973;80;20938;-84
2022/06/11 08:32:50;;;;;;;2.42;1.40;;;;;;;35.01;32.91;101084.98;3456183;80;22063;-84
2022/06/11 08:37:42;;;;;;;1.70;1.47;;;;;;;32.64;33.51;101087.39;3536700;80;20959;-84
2022/06/11 08:42:43;;;;;;;1.70;1.60;;;;;;;35.18;31.23;101071.94;3477710;80;38084;-84
2022/06/11 08:47:40;;;;;;;1.70;1.60;;;;;;;36.62;30.60;101069.25;3523878;80;20983;-84
2022/06/11 08:52:31;;;;;;;2.05;1.70;;;;;;;37.78;28.57;101064.34;3529965;80;20963;-84
2022/06/11 08:57:55;;;;;;;1.65;1.55;;;;;;;37.48;28.38;101064.79;3497502;80;21600;-84
2022/06/11 09:02:58;;;;;;;1.87;1.50;;;;;;;38.14;27.84;101053.25;3533872;80;20943;-84
2022/06/11 09:07:58;;;;;;;1.72;1.45;;;;;;;37.13;28.13;101070.68;3550313;80;20936;-84
2022/06/11 09:13:00;;;;;;;1.65;1.55;;;;;;;34.87;29.58;101055.52;3515035;80;20940;-84
2022/06/11 09:18:12;;;;;;;2.15;1.67;;;;;;;32.09;31.64;101062.94;3478077;80;20936;-83
2022/06/11 09:23:33;;;;;;;1.37;1.27;;;;;;;30.52;32.42;101061.77;3440135;82;22133;-83
2022/06/11 09:28:43;;;;;;;1.15;1.15;;;;;;;30.34;33.49;101050.34;3440689;82;21048;-83
2022/06/11 09:33:42;;;;;;;1.62;1.30;;;;;;;31.82;31.46;101039.62;3435041;82;21042;-83
2022/06/11 09:38:51;;;;;;;1.92;1.80;;;;;;;32.01;30.87;101039.70;3461861;82;20974;-83
2022/06/11 09:44:10;;;;;;;1.98;1.60;;;;;;;31.33;31.41;101032.09;3410999;81;20956;-83
2022/06/11 09:49:25;;;;;;;1.80;1.70;;;;;;;34.17;29.06;101031.23;3464637;82;21477;-83
2022/06/11 09:54:39;;;;;;;1.60;1.50;;;;;;;35.85;28.27;101029.86;3443928;81;21131;-84
2022/06/11 09:59:41;;;;;;;1.42;1.22;;;;;;;36.78;27.14;101040.34;3488021;82;20943;-83
2022/06/11 10:04:37;;;;;;;2.10;1.40;;;;;;;37.21;26.32;101032.94;3450697;81;20932;-83
2022/06/11 10:09:40;;;;;;;1.40;1.30;;;;;;;37.43;25.77;101028.25;3481641;80;20956;-84
2022/06/11 10:14:55;;;;;;;1.47;1.17;;;;;;;38.05;24.94;101032.39;3499659;80;21380;-83
2022/06/11 10:20:20;;;;;;;2.67;2.47;;;;;;;38.50;24.77;101031.70;3477956;82;20965;-83
2022/06/11 10:25:26;;;;;;;2.22;2.00;;;;;;;38.49;23.90;101030.02;3460117;82;20956;-83
2022/06/11 10:30:38;;;;;;;2.12;1.98;;;;;;;38.38;23.35;101028.82;3454370;81;21306;-83
2022/06/11 10:35:34;;;;;;;4.67;1.47;;;;;;;38.08;23.70;101019.02;3497536;80;20956;-83
2022/06/11 10:40:37;;;;;;;1.42;1.32;;;;;;;37.66;23.27;101023.44;3477229;80;21989;-83
2022/06/11 10:45:29;;;;;;;2.67;1.30;;;;;;;37.24;22.74;101012.81;3500141;80;21058;-83
2022/06/11 10:50:25;;;;;;;1.10;1.10;;;;;;;36.86;22.96;101004.94;3487949;81;21461;-83
2022/06/11 10:55:34;;;;;;;1.20;1.10;;;;;;;36.73;24.12;101007.39;3457239;81;21043;-83
2022/06/11 11:00:37;;;;;;;3.27;1.17;;;;;;;36.20;23.89;101007.54;3460174;81;20920;-82
2022/06/11 11:05:45;;;;;;;1.20;0.98;;;;;;;34.36;25.51;101011.80;3542868;80;21301;-82
2022/06/11 11:10:47;;;;;;;1.20;1.10;;;;;;;32.60;26.95;101001.08;3478799;80;20955;-82
2022/06/11 11:15:44;;;;;;;1.22;1.00;;;;;;;31.26;26.99;100993.16;3480119;80;20960;-81
2022/06/11 11:20:40;;;;;;;3.12;1.72;;;;;;;30.59;28.91;100987.13;3505465;80;21032;-81
2022/06/11 11:25:43;;;;;;;1.20;1.10;;;;;;;30.06;29.69;100991.27;3493780;80;20963;-81
2022/06/11 11:30:38;;;;;;;1.10;1.10;;;;;;;29.80;31.61;100977.64;3487916;80;21450;-82
2022/06/11 11:35:35;;;;;;;1.37;1.27;;;;;;;29.67;31.62;100977.44;3516299;80;21426;-81
2022/06/11 11:40:38;;;;;;;1.57;1.40;;;;;;;29.42;31.62;100978.02;3504696;81;21419;-84
2022/06/11 11:45:43;;;;;;;2.30;1.70;;;;;;;29.33;31.94;100966.51;3502197;81;21055;-84
2022/06/11 11:50:39;;;;;;;3.60;1.33;;;;;;;29.25;31.35;100967.81;3498577;78;20955;-84
2022/06/11 11:55:35;;;;;;;;;;;;;;;29.13;31.89;100976.52;3551029;79;21270;-83
2022/06/11 12:00:50;;;;;;;2.10;1.60;;;;;;;28.83;33.19;100967.94;3464027;79;20129;-83
2022/06/11 12:05:52;;;;;;;2.85;1.40;;;;;;;29.04;32.86;100963.17;3500476;80;20993;-83
2022/06/11 12:10:51;;;;;;;1.30;1.20;;;;;;;29.03;33.24;100972.66;3534123;80;20972;-80
2022/06/11 12:15:49;;;;;;;1.50;1.40;;;;;;;29.11;33.34;100971.73;3573382;79;20971;-80
2022/06/11 12:20:54;;;;;;;2.40;1.67;;;;;;;29.19;32.67;100970.86;3473589;80;21237;-80
2022/06/11 12:26:05;;;;;;;1.50;1.40;;;;;;;29.15;33.34;100978.66;3548455;80;21493;-80
2022/06/11 12:30:57;;;;;;;1.57;1.47;;;;;;;29.09;33.05;100962.92;3545755;80;21013;-80
2022/06/11 12:36:12;;;;;;;1.80;1.40;;;;;;;29.27;33.28;100965.91;3519304;80;20940;-80
2022/06/11 12:41:32;;;;;;;2.52;1.30;;;;;;;29.16;31.73;100961.66;3519444;80;21422;-80
2022/06/11 12:46:56;;;;;;;1.37;1.25;;;;;;;29.12;32.69;100969.45;3541943;80;21156;-80
2022/06/11 12:52:11;;;;;;;1.65;1.20;;;;;;;29.31;33.59;100973.28;3512972;80;20916;-80
2022/06/11 12:57:47;;;;;;;2.80;1.20;;;;;;;29.15;31.30;100970.62;3527918;80;20932;-80
2022/06/11 13:03:37;;;;;;;0.93;0.93;;;;;;;28.86;31.17;100975.78;3525011;80;20967;-80
2022/06/11 13:09:06;;;;;;;1.32;1.22;;;;;;;29.01;31.80;100968.72;3545842;80;20932;-80
2022/06/11 13:14:31;;;;;;;2.52;1.30;;;;;;;29.07;32.48;100970.18;3553706;80;21357;-80
2022/06/11 13:20:00;;;;;;;1.07;0.90;;;;;;;28.92;31.42;100968.36;3489537;80;21027;-80
2022/06/11 13:25:20;;;;;;;1.30;1.20;;;;;;;28.95;31.94;100955.67;3526413;80;21046;-80
2022/06/11 13:30:39;;;;;;;1.02;0.93;;;;;;;28.96;31.48;100955.22;3364309;82;20950;-80
2022/06/11 13:35:55;;;;;;;1.30;1.20;;;;;;;28.85;30.54;100960.69;3384315;82;20983;-81
2022/06/11 13:41:23;;;;;;;1.37;1.12;;;;;;;28.66;30.41;100959.98;3392644;82;20999;-81
2022/06/11 13:46:35;;;;;;;2.20;1.55;;;;;;;28.82;30.94;100944.80;3419758;81;21506;-80
2022/06/11 13:51:28;;;;;;;2.83;1.35;;;;;;;28.54;31.82;100955.30;3421319;81;21042;-80
2022/06/11 13:56:40;;;;;;;2.70;1.50;;;;;;;28.58;31.45;100948.83;3364183;82;21008;-80
2022/06/11 14:01:48;;;;;;;1.82;1.10;;;;;;;28.69;32.56;100942.43;3402820;82;21064;-80
2022/06/11 14:06:41;;;;;;;1.70;1.20;;;;;;;28.79;31.82;100934.73;3389558;83;21183;-80
2022/06/11 14:11:41;;;;;;;1.67;1.32;;;;;;;28.84;31.76;100936.69;3399567;83;20983;-80
2022/06/11 14:16:37;;;;;;;1.50;1.40;;;;;;;28.59;31.10;100937.19;3374591;81;20987;-80
2022/06/11 14:21:43;;;;;;;3.87;1.37;;;;;;;28.63;31.91;100937.41;3404703;81;21109;-80
2022/06/11 14:26:52;;;;;;;1.17;1.00;;;;;;;28.70;31.35;100932.95;3378772;82;21030;-80
2022/06/11 14:31:57;;;;;;;1.50;1.37;;;;;;;28.76;31.30;100934.45;3386469;81;21601;-80
2022/06/11 14:37:05;;;;;;;1.30;1.20;;;;;;;28.62;31.85;100929.01;3445238;80;22297;-80
2022/06/11 14:42:14;;;;;;;2.45;2.02;;;;;;;28.52;31.95;100916.08;3500137;80;20966;-80
2022/06/11 14:47:27;;;;;;;1.52;1.42;;;;;;;28.41;32.10;100921.17;3506619;80;20978;-80
2022/06/11 14:52:24;;;;;;;1.10;0.95;;;;;;;28.49;32.79;100919.40;3467235;80;20936;-80
2022/06/11 14:57:58;;;;;;;1.10;1.00;;;;;;;28.28;31.78;100912.10;3498732;80;22326;-80
2022/06/11 15:03:26;;;;;;;1.47;1.37;;;;;;;28.33;31.61;100924.27;3472812;81;21505;-80
2022/06/11 15:08:52;;;;;;;2.10;1.42;;;;;;;28.27;32.14;100912.55;3469082;80;21524;-80
2022/06/11 15:14:10;;;;;;;1.27;1.17;;;;;;;28.27;32.21;100913.89;3510667;80;20980;-80
2022/06/11 15:19:16;;;;;;;1.42;1.27;;;;;;;28.10;31.48;100912.14;3506152;80;20983;-80
2022/06/11 15:24:47;;;;;;;1.00;1.00;;;;;;;27.91;31.54;100910.91;3445140;80;21171;-80
2022/06/11 15:29:38;;;;;;;1.82;1.10;;;;;;;27.84;31.83;100911.28;3504633;80;20932;-80
2022/06/11 15:34:38;;;;;;;2.42;1.50;;;;;;;27.68;33.04;100913.41;3509990;80;21019;-80
2022/06/11 15:39:36;;;;;;;1.22;1.12;;;;;;;27.49;32.12;100913.50;3505136;79;21264;-80
2022/06/11 15:44:33;;;;;;;4.12;1.98;;;;;;;27.37;32.95;100908.78;3488399;81;21013;-80
2022/06/11 15:49:41;;;;;;;2.17;1.98;;;;;;;27.31;32.79;100907.28;3496761;81;22158;-80
2022/06/11 15:59:43;;;;;;;1.50;1.17;;;;;;;27.04;32.54;100900.12;3535054;80;20971;-80
2022/06/11 16:04:39;;;;;;;3.17;1.67;;;;;;;27.00;33.30;100898.07;3517534;80;22069;-80
2022/06/11 16:09:36;;;;;;;1.40;1.30;;;;;;;26.95;33.63;100897.46;3484747;80;21284;-80
2022/06/11 16:14:36;;;;;;;1.55;1.40;;;;;;;26.94;34.46;100899.72;3517786;80;21952;-80
2022/06/11 16:19:30;;;;;;;1.42;1.20;;;;;;;26.74;34.02;100899.80;3578898;80;20928;-80
2022/06/11 16:24:25;;;;;;;1.47;1.27;;;;;;;26.61;33.84;100900.86;3485583;80;20936;-80
2022/06/11 16:29:20;;;;;;;2.20;1.22;;;;;;;26.46;33.91;100907.75;3481167;80;20974;-79
2022/06/11 16:34:19;;;;;;;1.80;1.70;;;;;;;26.32;34.21;100904.86;3535145;80;20963;-80
2022/06/11 16:39:36;;;;;;;4.05;2.10;;;;;;;26.20;34.94;100901.83;3518811;80;21099;-79
2022/06/11 16:44:34;;;;;;;3.02;1.65;;;;;;;26.11;34.89;100907.55;3520724;80;20962;-79
2022/06/11 16:59:56;;;;;;;2.20;1.22;;;;;;;25.97;35.93;100909.95;3517330;81;21043;-79
2022/06/11 17:04:59;;;;;;;1.52;1.42;;;;;;;25.90;36.68;100910.69;3443908;81;21929;-79
2022/06/11 17:09:50;;;;;;;1.67;1.57;;;;;;;25.72;36.65;100901.70;3482784;81;20960;-80
2022/06/11 17:14:49;;;;;;;2.70;1.50;;;;;;;25.62;36.78;100909.68;3454122;81;21457;-79
2022/06/11 17:19:41;;;;;;;1.95;1.47;;;;;;;25.45;36.95;100902.39;3479744;81;20974;-79
2022/06/11 17:24:40;;;;;;;2.62;1.20;;;;;;;25.34;37.66;100913.49;3458846;81;21012;-80
2022/06/11 17:29:33;;;;;;;3.75;2.27;;;;;;;25.13;37.97;100917.89;3472376;80;21156;-80
2022/06/11 17:34:25;;;;;;;2.90;1.30;;;;;;;25.01;37.58;100921.05;3482409;81;21577;-79
2022/06/11 17:39:23;;;;;;;2.98;1.40;;;;;;;24.97;37.54;100922.96;3456542;81;20931;-80
2022/06/11 17:44:31;;;;;;;2.47;1.27;;;;;;;24.82;37.07;100926.21;3458070;81;21021;-79
2022/06/11 17:49:22;;;;;;;2.17;1.92;;;;;;;24.66;37.12;100920.15;3458837;81;20962;-80
2022/06/11 17:54:28;;;;;;;2.05;1.25;;;;;;;24.53;37.28;100925.55;3516267;80;21092;-79
2022/06/11 17:59:19;;;;;;;3.35;1.50;;;;;;;24.35;37.71;100929.26;3509271;80;21484;-79
2022/06/11 18:04:36;;;;;;;3.37;1.62;;;;;;;24.11;38.08;100931.47;3487410;80;21006;-79
2022/06/11 18:09:28;;;;;;;2.02;1.40;;;;;;;23.86;38.70;100935.46;3552399;80;20999;-80
2022/06/11 18:14:19;;;;;;;3.75;1.72;;;;;;;23.62;39.08;100944.65;3512929;80;20994;-79
2022/06/11 18:19:11;;;;;;;3.00;1.87;;;;;;;23.42;39.42;100942.66;3577261;79;21233;-79
2022/06/11 18:29:13;;;;;;;3.02;1.65;;;;;;;22.88;41.71;100944.81;3532148;79;20940;-79
2022/06/11 18:34:06;;;;;;;2.00;1.90;;;;;;;22.51;42.46;100944.58;3480458;80;20936;-79
2022/06/11 18:38:58;;;;;;;2.22;2.00;;;;;;;22.14;43.24;100948.21;3540914;80;20936;-79
2022/06/11 18:43:50;;;;;;;4.00;2.33;;;;;;;21.77;44.04;100952.72;3496707;80;21036;-79
2022/06/11 18:48:41;;;;;;;3.80;2.20;;;;;;;21.48;44.74;100958.72;3512922;80;20999;-79
2022/06/11 18:53:32;;;;;;;3.70;3.37;;;;;;;21.22;45.17;100965.48;3496498;80;20943;-79
2022/06/11 18:58:23;;;;;;;3.45;2.40;;;;;;;21.01;45.83;100969.94;3504578;80;20967;-79
2022/06/11 19:03:14;;;;;;;11.28;2.52;;;;;;;20.82;46.18;100977.39;3461103;80;20904;-79
2022/06/11 19:08:06;;;;;;;4.10;2.43;;;;;;;20.60;46.63;100987.51;3452553;80;20872;-79
2022/06/11 19:12:57;;;;;;;2.98;1.72;;;;;;;20.38;47.08;101003.32;3501379;80;20995;-79
2022/06/11 19:17:54;;;;;;;8.80;2.30;;;;;;;20.24;47.91;101005.81;3522424;80;20880;-79
2022/06/11 19:22:43;;;;;;;3.08;2.37;;;;;;;20.09;48.68;101010.47;3514723;80;20921;-79
2022/06/11 19:27:36;;;;;;;2.58;2.37;;;;;;;19.91;48.58;101014.77;3468378;80;21094;-79
2022/06/11 19:32:28;;;;;;;3.35;2.37;;;;;;;19.74;49.17;101014.56;3465285;80;21442;-79
2022/06/11 19:37:19;;;;;;;4.62;3.37;;;;;;;19.59;49.64;101022.25;3507452;80;20967;-79
2022/06/11 19:42:13;;;;;;;3.22;2.85;;;;;;;19.45;50.11;101026.00;3474666;80;20959;-79
2022/06/11 19:47:05;;;;;;;3.80;2.98;;;;;;;19.30;50.63;101024.02;3517269;80;20967;-79
2022/06/11 19:51:58;;;;;;;5.12;2.95;;;;;;;19.15;51.03;101021.58;3526981;80;20959;-79
2022/06/11 19:56:50;;;;;;;4.15;3.33;;;;;;;19.00;51.37;101024.84;3431873;80;21079;-82
2022/06/11 20:01:42;;;;;;;5.35;3.62;;;;;;;18.87;51.89;101029.86;3436889;80;20951;-82
2022/06/11 20:06:35;;;;;;;7.45;4.53;;;;;;;18.74;52.19;101025.58;3436000;80;21003;-82
2022/06/11 20:11:28;;;;;;;6.22;3.62;;;;;;;18.59;52.61;101027.50;3397797;80;21002;-82
2022/06/11 20:16:24;;;;;;;4.60;3.15;;;;;;;18.48;53.06;101035.52;3411946;80;20963;-82
2022/06/11 20:21:15;;;;;;;8.45;4.08;;;;;;;18.34;53.35;101043.14;3438316;80;21358;-82
2022/06/11 20:26:08;;;;;;;4.03;3.58;;;;;;;18.21;53.74;101043.27;3410027;80;20966;-82
2022/06/11 20:31:01;;;;;;;7.95;3.92;;;;;;;18.10;54.11;101039.87;3422065;80;20956;-82
2022/06/11 20:35:52;;;;;;;8.65;4.75;;;;;;;17.95;54.40;101043.93;3453813;80;21469;-82
2022/06/11 20:40:44;;;;;;;56.95;9.90;;;;;;;17.85;54.84;101039.14;3436704;80;21007;-82
2022/06/11 20:45:35;;;;;;;17.23;6.60;;;;;;;17.72;55.29;101038.36;3474375;80;21137;-82
2022/06/11 20:50:26;;;;;;;13.50;7.25;;;;;;;17.56;55.66;101047.25;3405331;80;20995;-82
2022/06/11 20:55:21;;;;;;;9.95;6.40;;;;;;;17.42;56.22;101046.02;3481484;80;20990;-82
2022/06/11 21:00:14;;;;;;;11.97;6.83;;;;;;;17.34;56.52;101044.75;3486898;80;20967;-82
2022/06/11 21:05:08;;;;;;;12.23;6.40;;;;;;;17.22;57.09;101040.42;3499448;79;21011;-83
2022/06/11 21:09:59;;;;;;;14.10;6.67;;;;;;;17.14;57.37;101037.84;3452525;80;21473;-82
2022/06/11 21:14:51;;;;;;;10.63;7.60;;;;;;;17.08;57.51;101037.89;3487526;80;20994;-82
2022/06/11 21:19:42;;;;;;;11.70;7.12;;;;;;;17.04;57.93;101040.08;3470137;80;21014;-81
2022/06/11 21:24:38;;;;;;;18.07;9.67;;;;;;;16.94;58.25;101044.96;3541810;80;21077;-81
2022/06/11 21:29:29;;;;;;;8.48;6.87;;;;;;;16.83;58.43;101050.64;3486406;79;21353;-81
2022/06/11 21:34:21;;;;;;;10.93;7.95;;;;;;;16.74;58.79;101058.11;3543069;80;21030;-81
2022/06/11 21:39:12;;;;;;;14.10;8.63;;;;;;;16.66;59.26;101063.39;3469841;80;20942;-81
2022/06/11 21:44:05;;;;;;;12.40;9.78;;;;;;;16.56;59.48;101057.72;3489222;80;20986;-81
2022/06/11 21:48:58;;;;;;;13.45;10.08;;;;;;;16.47;59.68;101060.36;3527979;80;20916;-79
2022/06/11 21:53:49;;;;;;;11.80;7.25;;;;;;;16.42;60.04;101052.93;3524471;80;21016;-79
2022/06/11 21:58:40;;;;;;;15.43;10.45;;;;;;;16.38;60.15;101046.41;3458384;81;21177;-79
2022/06/11 22:03:31;;;;;;;12.43;9.20;;;;;;;16.31;60.45;101039.42;3488094;81;22120;-79
2022/06/11 22:08:23;;;;;;;10.28;8.60;;;;;;;16.21;60.40;101037.67;3509065;81;20936;-79
2022/06/11 22:13:14;;;;;;;11.63;7.97;;;;;;;16.19;60.69;101035.50;3505064;81;21518;-79
2022/06/11 22:18:06;;;;;;;10.93;8.55;;;;;;;16.11;60.82;101033.30;3486770;81;20929;-79
2022/06/11 22:22:57;;;;;;;8.03;6.20;;;;;;;15.99;61.01;101031.13;3506940;81;21149;-79
2022/06/11 22:27:49;;;;;;;7.25;6.50;;;;;;;15.81;61.16;101030.70;3456020;81;21520;-79
2022/06/11 22:32:43;;;;;;;10.65;6.37;;;;;;;15.70;61.70;101028.89;3479115;81;20963;-79
2022/06/11 22:37:35;;;;;;;6.10;5.28;;;;;;;15.69;61.81;101021.48;3506456;81;20919;-79
2022/06/11 22:42:27;;;;;;;10.30;6.22;;;;;;;15.69;61.95;101025.86;3423219;81;20947;-79
2022/06/11 22:47:19;;;;;;;8.48;5.55;;;;;;;15.59;62.06;101019.71;3502248;81;21019;-79
2022/06/11 22:52:11;;;;;;;7.42;6.03;;;;;;;15.49;62.21;101021.46;3481460;81;21102;-79
2022/06/11 22:57:02;;;;;;;11.12;5.03;;;;;;;15.40;62.75;101021.45;3515753;81;21000;-79
2022/06/11 23:01:53;;;;;;;8.88;6.17;;;;;;;15.31;62.97;101014.44;3458531;81;20971;-79
2022/06/11 23:06:44;;;;;;;6.72;5.58;;;;;;;15.23;63.11;101006.55;3478494;81;21761;-79
2022/06/11 23:11:36;;;;;;;8.70;6.75;;;;;;;15.15;63.12;101005.67;3484127;81;21086;-79
2022/06/11 23:16:27;;;;;;;11.38;6.20;;;;;;;15.12;63.27;101013.95;3457025;81;20928;-79
2022/06/11 23:21:22;;;;;;;7.50;5.60;;;;;;;15.02;63.15;101005.17;3449979;81;20893;-79
2022/06/11 23:26:14;;;;;;;7.60;6.30;;;;;;;14.92;63.47;101016.51;3540040;81;21291;-79